createdAt,value
2022-12-04T00:00:40.574Z,187.73
2022-12-04T00:04:40.866Z,183.8
2022-12-04T00:08:40.559Z,198.93
2022-12-04T00:12:40.738Z,188.77
2022-12-04T00:16:41.322Z,173.87
2022-12-04T00:20:40.510Z,184.73
2022-12-04T00:24:40.487Z,185.33
2022-12-04T00:28:40.558Z,162.33
2022-12-04T00:32:40.551Z,184.57
2022-12-04T00:36:40.650Z,185.63
2022-12-04T00:40:40.546Z,180.1
2022-12-04T00:44:40.507Z,194.2
2022-12-04T00:48:40.532Z,188.23
2022-12-04T00:52:40.476Z,201.23
2022-12-04T00:56:40.552Z,195.27
2022-12-04T01:00:40.346Z,200.4
2022-12-04T01:04:40.066Z,195.5
2022-12-04T01:08:40.938Z,195.2
2022-12-04T01:12:40.466Z,189.13
2022-12-04T01:16:40.689Z,205.43
2022-12-04T01:20:40.620Z,188.6
2022-12-04T01:24:40.466Z,205.63
2022-12-04T01:28:40.719Z,194.83
2022-12-04T01:32:40.101Z,186.5
2022-12-04T01:36:40.639Z,218.63
2022-12-04T01:40:40.361Z,201.27
2022-12-04T01:44:40.465Z,193.6
2022-12-04T01:48:40.895Z,211.47
2022-12-04T01:52:40.530Z,198.87
2022-12-04T01:56:40.487Z,205.57
2022-12-04T02:00:40.513Z,191.03
2022-12-04T02:04:40.465Z,194.67
2022-12-04T02:08:40.757Z,216.03
2022-12-04T02:12:40.554Z,206.13
2022-12-04T02:16:40.933Z,192.33
2022-12-04T02:20:40.358Z,207.8
2022-12-04T02:24:43.972Z,215.27
2022-12-04T02:28:40.481Z,203.17
2022-12-04T02:32:40.594Z,208.33
2022-12-04T02:36:40.345Z,188.73
2022-12-04T02:40:40.587Z,203.37
2022-12-04T02:44:40.538Z,202.17
2022-12-04T02:48:40.702Z,195.23
2022-12-04T02:52:40.686Z,171.1
2022-12-04T02:56:40.449Z,201.77
2022-12-04T03:00:40.592Z,203.47
2022-12-04T03:04:40.292Z,188.43
2022-12-04T03:08:40.728Z,183.9
2022-12-04T03:12:40.481Z,184.93
2022-12-04T03:16:40.624Z,193.87
2022-12-04T03:20:40.639Z,190.2
2022-12-04T03:24:40.514Z,202.67
2022-12-04T03:28:40.504Z,194.37
2022-12-04T03:32:40.468Z,211.53
2022-12-04T03:36:39.703Z,192.13
2022-12-04T03:40:40.668Z,200.87
2022-12-04T03:44:40.562Z,217.63
2022-12-04T03:48:40.599Z,210.33
2022-12-04T03:52:40.358Z,225.63
2022-12-04T03:56:40.612Z,200.7
2022-12-04T04:00:40.518Z,208.87
2022-12-04T04:04:40.600Z,203.63
2022-12-04T04:08:40.551Z,202.7
2022-12-04T04:12:40.481Z,220.33
2022-12-04T04:16:40.564Z,211.03
2022-12-04T04:20:40.715Z,219.57
2022-12-04T04:24:40.448Z,225.6
2022-12-04T04:28:40.642Z,212.13
2022-12-04T04:32:40.527Z,204.17
2022-12-04T04:36:40.455Z,244.07
2022-12-04T04:40:40.474Z,221.13
2022-12-04T04:44:40.533Z,204.67
2022-12-04T04:48:40.449Z,239.5
2022-12-04T04:52:40.928Z,217.6
2022-12-04T04:56:40.532Z,229.13
2022-12-04T05:00:40.957Z,178.43
2022-12-04T05:04:40.542Z,203
2022-12-04T05:08:40.325Z,216.7
2022-12-04T05:12:40.435Z,213.23
2022-12-04T05:16:40.317Z,236.6
2022-12-04T05:20:40.630Z,203.73
2022-12-04T05:24:40.468Z,234.3
2022-12-04T05:28:40.502Z,222.77
2022-12-04T05:32:40.471Z,229.8
2022-12-04T05:36:40.672Z,200.47
2022-12-04T05:40:40.667Z,224.2
2022-12-04T05:44:40.502Z,197.93
2022-12-04T05:48:40.373Z,223.07
2022-12-04T05:52:40.331Z,227.27
2022-12-04T05:56:40.594Z,230.57
2022-12-04T06:00:40.802Z,235.57
2022-12-04T06:04:40.496Z,232.2
2022-12-04T06:08:40.583Z,231.3
2022-12-04T06:12:40.493Z,227.43
2022-12-04T06:16:40.570Z,271.57
2022-12-04T06:20:40.713Z,247.3
2022-12-04T06:24:41.228Z,228.33
2022-12-04T06:28:40.617Z,261.27
2022-12-04T06:32:40.787Z,236.8
2022-12-04T06:36:39.732Z,238.23
2022-12-04T06:40:40.698Z,218.87
2022-12-04T06:44:40.484Z,263.4
2022-12-04T06:48:40.804Z,237.43
2022-12-04T06:52:40.461Z,235
2022-12-04T06:56:40.611Z,253.73
2022-12-04T07:00:40.240Z,229.83
2022-12-04T07:04:41.213Z,243.1
2022-12-04T07:08:40.593Z,248.4
2022-12-04T07:12:40.283Z,247.6
2022-12-04T07:16:42.013Z,205.97
2022-12-04T07:20:40.605Z,235.73
2022-12-04T07:24:40.522Z,247.3
2022-12-04T07:28:41.142Z,222.43
2022-12-04T07:32:39.997Z,247.23
2022-12-04T07:36:40.657Z,229.1
2022-12-04T07:40:40.521Z,224.53
2022-12-04T07:44:40.474Z,239.93
2022-12-04T07:48:40.526Z,248.9
2022-12-04T07:52:39.846Z,237.67
2022-12-04T07:56:40.259Z,225.1
2022-12-04T08:00:40.828Z,220.87
2022-12-04T08:04:40.255Z,218.1
2022-12-04T08:08:40.514Z,221.5
2022-12-04T08:12:40.826Z,212.87
2022-12-04T08:16:40.670Z,233.77
2022-12-04T08:20:40.676Z,223.93
2022-12-04T08:24:40.516Z,242.6
2022-12-04T08:28:40.946Z,216.97
2022-12-04T08:32:40.381Z,218.53
2022-12-04T08:36:40.117Z,230.93
2022-12-04T08:40:41.021Z,221.67
2022-12-04T08:44:40.503Z,228.7
2022-12-04T08:48:40.551Z,223.13
2022-12-04T08:52:40.268Z,226.27
2022-12-04T08:56:40.584Z,204.57
2022-12-04T09:00:41.445Z,218.37
2022-12-04T09:04:40.562Z,218.73
2022-12-04T09:08:40.858Z,214.77
2022-12-04T09:12:40.535Z,218.03
2022-12-04T09:16:40.346Z,210.8
2022-12-04T09:20:40.453Z,200.3
2022-12-04T09:24:40.302Z,191.63
2022-12-04T09:28:40.570Z,191.17
2022-12-04T09:32:40.396Z,201.73
2022-12-04T09:36:40.359Z,191.33
2022-12-04T09:40:40.536Z,193.83
2022-12-04T09:44:40.574Z,195.57
2022-12-04T09:48:40.831Z,190.07
2022-12-04T09:52:40.927Z,191.23
2022-12-04T09:56:40.491Z,198.6
2022-12-04T10:00:40.882Z,175.7
2022-12-04T10:04:40.454Z,189.83
2022-12-04T10:08:41.003Z,165.83
2022-12-04T10:12:40.672Z,177.73
2022-12-04T10:16:40.617Z,181.7
2022-12-04T10:20:40.535Z,197.3
2022-12-04T10:24:39.294Z,170.37
2022-12-04T10:28:40.459Z,171.13
2022-12-04T10:32:40.309Z,163.83
2022-12-04T10:36:39.398Z,181.5
2022-12-04T10:40:40.278Z,182.03
2022-12-04T10:44:40.699Z,181.43
2022-12-04T10:48:40.645Z,176.23
2022-12-04T10:52:41.273Z,184.37
2022-12-04T10:56:40.137Z,174.73
2022-12-04T11:00:40.980Z,184.33
2022-12-04T11:04:40.538Z,158.23
2022-12-04T11:08:40.568Z,187.03
2022-12-04T11:12:40.602Z,166.83
2022-12-04T11:16:41.349Z,169.03
2022-12-04T11:20:45.486Z,171.53
2022-12-04T11:24:40.510Z,166.4
2022-12-04T11:28:42.196Z,173.57
2022-12-04T11:32:40.860Z,193.53
2022-12-04T11:36:40.504Z,181.73
2022-12-04T11:40:40.716Z,186.17
2022-12-04T11:44:40.723Z,170.13
2022-12-04T11:48:40.462Z,164.63
2022-12-04T11:52:40.805Z,188.4
2022-12-04T11:56:41.225Z,161.9
2022-12-04T12:00:41.040Z,184.33
2022-12-04T12:04:40.999Z,178.5
2022-12-04T12:08:40.582Z,173.8
2022-12-04T12:12:40.492Z,182.3
2022-12-04T12:16:40.776Z,172.27
2022-12-04T12:20:40.512Z,170.3
2022-12-04T12:24:40.309Z,175.53
2022-12-04T12:28:39.459Z,177.17
2022-12-04T12:32:40.770Z,192.23
2022-12-04T12:36:43.712Z,181.17
2022-12-04T12:40:40.503Z,186.47
2022-12-04T12:44:40.514Z,161.4
2022-12-04T12:48:40.517Z,166.6
2022-12-04T12:52:40.385Z,183.5
2022-12-04T12:56:47.823Z,182.97
2022-12-04T13:00:40.918Z,168.07
2022-12-04T13:04:40.538Z,177.9
2022-12-04T13:08:44.864Z,178.53
2022-12-04T13:12:40.363Z,172.8
2022-12-04T13:16:41.069Z,170.67
2022-12-04T13:20:40.592Z,181.5
2022-12-04T13:24:40.951Z,166.97
2022-12-04T13:28:40.533Z,181.63
2022-12-04T13:32:40.284Z,172
2022-12-04T13:36:40.490Z,167.93
2022-12-04T13:40:40.589Z,178.87
2022-12-04T13:44:40.496Z,162.9
2022-12-04T13:48:40.511Z,159.93
2022-12-04T13:52:40.464Z,173.7
2022-12-04T13:56:40.691Z,184.8
2022-12-04T14:00:40.531Z,172.03
2022-12-04T14:04:40.499Z,188.03
2022-12-04T14:08:40.438Z,165.43
2022-12-04T14:12:40.257Z,168.07
2022-12-04T14:16:40.707Z,168.67
2022-12-04T14:20:40.570Z,172.2
2022-12-04T14:24:40.441Z,165.73
2022-12-04T14:28:42.383Z,179.5
2022-12-04T14:32:40.628Z,173.53
2022-12-04T14:36:40.487Z,164.9
2022-12-04T14:40:40.535Z,163.77
2022-12-04T14:44:40.448Z,161.13
2022-12-04T14:48:40.520Z,171.87
2022-12-04T14:52:40.507Z,195.37
2022-12-04T14:56:40.533Z,168.57
2022-12-04T15:00:40.625Z,166.07
2022-12-04T15:04:41.176Z,170.4
2022-12-04T15:08:40.639Z,183
2022-12-04T15:12:41.129Z,157.13
2022-12-04T15:16:40.642Z,151.2
2022-12-04T15:20:40.754Z,150.47
2022-12-04T15:24:40.735Z,173.67
2022-12-04T15:28:40.494Z,173.13
2022-12-04T15:32:40.660Z,168.13
2022-12-04T15:36:40.280Z,164.83
2022-12-04T15:40:40.674Z,175.4
2022-12-04T15:44:40.525Z,171.4
2022-12-04T15:48:46.326Z,173.6
2022-12-04T15:52:40.330Z,147.83
2022-12-04T15:56:40.674Z,159.87
2022-12-04T16:00:40.991Z,152.27
2022-12-04T16:04:45.355Z,152.17
2022-12-04T16:08:40.718Z,134.63
2022-12-04T16:12:40.485Z,136.57
2022-12-04T16:16:39.448Z,149.6
2022-12-04T16:20:40.557Z,141.97
2022-12-04T16:24:40.698Z,143.8
2022-12-04T16:28:40.455Z,139.1
2022-12-04T16:32:40.695Z,141.13
2022-12-04T16:36:40.411Z,137.97
2022-12-04T16:40:40.612Z,136.2
2022-12-04T16:44:40.341Z,148.77
2022-12-04T16:48:40.422Z,145.63
2022-12-04T16:52:40.483Z,129.07
2022-12-04T16:56:40.401Z,133.77
2022-12-04T17:00:40.714Z,148.83
2022-12-04T17:04:40.527Z,134.97
2022-12-04T17:08:40.719Z,143.43
2022-12-04T17:12:40.537Z,148.3
2022-12-04T17:16:41.378Z,126.53
2022-12-04T17:20:40.636Z,134.87
2022-12-04T17:24:47.198Z,137.8
2022-12-04T17:28:40.468Z,145.77
2022-12-04T17:32:40.896Z,129.97
2022-12-04T17:36:40.495Z,134.1
2022-12-04T17:40:39.911Z,131.43
2022-12-04T17:44:41.227Z,143.8
2022-12-04T17:48:40.328Z,144.23
2022-12-04T17:52:40.565Z,110.07
2022-12-04T17:56:46.079Z,142.93
2022-12-04T18:00:41.008Z,143.03
2022-12-04T18:04:40.512Z,132.13
2022-12-04T18:08:44.042Z,141.9
2022-12-04T18:12:40.534Z,130.4
2022-12-04T18:16:40.559Z,130.03
2022-12-04T18:20:40.480Z,138.17
2022-12-04T18:24:40.582Z,125.33
2022-12-04T18:28:39.299Z,149.63
2022-12-04T18:32:40.333Z,130.2
2022-12-04T18:36:40.715Z,124.37
2022-12-04T18:40:40.544Z,140.43
2022-12-04T18:44:40.550Z,127.6
2022-12-04T18:48:40.741Z,122.47
2022-12-04T18:52:40.848Z,143.6
2022-12-04T18:56:40.333Z,130.97
2022-12-04T19:00:40.901Z,130.77
2022-12-04T19:04:40.542Z,132.03
2022-12-04T19:08:43.173Z,124.97
2022-12-04T19:12:41.014Z,122.47
2022-12-04T19:16:40.603Z,130.57
2022-12-04T19:20:40.526Z,133.1
2022-12-04T19:24:40.478Z,129.6
2022-12-04T19:28:40.830Z,133.03
2022-12-04T19:32:40.596Z,115.97
2022-12-04T19:36:40.515Z,131.43
2022-12-04T19:40:40.660Z,115.67
2022-12-04T19:44:49.481Z,135.03
2022-12-04T19:48:40.483Z,131.6
2022-12-04T19:52:40.589Z,125.6
2022-12-04T19:56:40.415Z,117
2022-12-04T20:00:40.520Z,132.77
2022-12-04T20:04:40.440Z,134.83
2022-12-04T20:08:40.367Z,122.9
2022-12-04T20:12:40.552Z,119.8
2022-12-04T20:16:40.552Z,115.1
2022-12-04T20:20:40.485Z,133.63
2022-12-04T20:24:40.513Z,122.07
2022-12-04T20:28:40.619Z,129.8
2022-12-04T20:32:40.765Z,126.8
2022-12-04T20:36:40.695Z,108.17
2022-12-04T20:40:40.764Z,119.27
2022-12-04T20:44:40.570Z,118.17
2022-12-04T20:48:41.046Z,119
2022-12-04T20:52:40.546Z,109.87
2022-12-04T20:56:40.551Z,106.5
2022-12-04T21:00:40.590Z,115.57
2022-12-04T21:04:40.437Z,102.43
2022-12-04T21:08:40.865Z,99.97
2022-12-04T21:12:43.324Z,103.13
2022-12-04T21:16:40.673Z,97.2
2022-12-04T21:20:40.551Z,104.77
2022-12-04T21:24:40.636Z,98.6
2022-12-04T21:28:40.557Z,101.87
2022-12-04T21:32:40.492Z,98.1
2022-12-04T21:36:40.607Z,91.13
2022-12-04T21:40:42.736Z,101.83
2022-12-04T21:44:40.472Z,99.77
2022-12-04T21:48:40.458Z,101.17
2022-12-04T21:52:40.449Z,104.83
2022-12-04T21:56:40.472Z,94.7
2022-12-04T22:00:40.521Z,100.6
2022-12-04T22:04:40.686Z,96.33
2022-12-04T22:08:40.539Z,95.6
2022-12-04T22:12:49.705Z,91.1
2022-12-04T22:16:42.800Z,95.67
2022-12-04T22:20:40.420Z,97.3
2022-12-04T22:24:40.536Z,88
2022-12-04T22:28:39.496Z,91.3
2022-12-04T22:32:40.641Z,97.43
2022-12-04T22:36:40.401Z,90.07
2022-12-04T22:40:40.341Z,86.73
2022-12-04T22:44:40.507Z,95.37
2022-12-04T22:48:40.510Z,85.67
2022-12-04T22:52:40.532Z,91.77
2022-12-04T22:56:40.463Z,94.6
2022-12-04T23:00:40.274Z,86.9
2022-12-04T23:04:40.556Z,94.13
2022-12-04T23:08:40.600Z,93.37
2022-12-04T23:12:40.555Z,94.37
2022-12-04T23:16:41.288Z,85.83
2022-12-04T23:20:40.588Z,90.63
2022-12-04T23:24:40.522Z,87.63
2022-12-04T23:28:40.451Z,97.4
2022-12-04T23:32:40.696Z,100.03
2022-12-04T23:36:40.433Z,94.1
2022-12-04T23:40:40.597Z,89.63
2022-12-04T23:44:40.550Z,94.6
2022-12-04T23:48:41.116Z,93.9
2022-12-04T23:52:40.604Z,90.83
2022-12-04T23:56:40.530Z,91
